Time+07,TemperatureF,Dew PointF,Humidity,Sea Level PressureIn,VisibilityMPH,Wind Direction,Wind SpeedMPH,Gust SpeedMPH,PrecipitationIn,Events,Conditions,WindDirDegrees,DateUTC
12:00 AM,77.0,69.8,78,29.83,-9999.0,NNE,3.5,-,N/A,,Clear,30,2012-11-14 17:00:00
1:00 AM,76,70,75,29.81,6,NNE,3.5,,,,Scattered Clouds,30,2012-11-14 18:00:00
1:00 AM,77.0,69.8,78,29.80,-9999.0,NNE,3.5,-,N/A,,Clear,30,2012-11-14 18:00:00
2:00 AM,75.2,69.8,83,29.80,-9999.0,NE,3.5,-,N/A,,Clear,40,2012-11-14 19:00:00
4:00 AM,75.2,69.8,83,29.77,-9999.0,North,3.5,-,N/A,,Clear,10,2012-11-14 21:00:00
5:00 AM,73.4,69.8,88,29.77,-9999.0,NNE,3.5,-,N/A,,Clear,20,2012-11-14 22:00:00
6:00 AM,73.4,69.8,88,29.80,5.6,NNE,2.3,-,N/A,,Unknown,20,2012-11-14 23:00:00
6:30 AM,73.4,69.8,88,29.83,5.6,North,2.3,-,N/A,,Unknown,10,2012-11-14 23:30:00
7:00 AM,73,70,87,29.85,6,North,2.3,,,,Mist,10,2012-11-15 00:00:00
7:00 AM,73.4,68.0,83,29.83,5.6,North,2.3,-,N/A,,Unknown,10,2012-11-15 00:00:00
8:00 AM,77.0,69.8,78,29.86,-9999.0,NNE,5.8,-,N/A,,Clear,20,2012-11-15 01:00:00
9:00 AM,78.8,68.0,69,29.86,-9999.0,NNE,5.8,-,N/A,,Clear,30,2012-11-15 02:00:00
10:00 AM,82.4,69.8,66,29.89,-9999.0,East,6.9,-,N/A,,Clear,80,2012-11-15 03:00:00
11:00 AM,86.0,68.0,55,29.86,-9999.0,North,5.8,-,N/A,,Clear,10,2012-11-15 04:00:00
12:00 PM,87.8,68.0,52,29.83,6.2,NE,5.8,-,N/A,,Mostly Cloudy,50,2012-11-15 05:00:00
1:00 PM,88,67,39,29.83,6,NE,5.8,,,,Scattered Clouds,50,2012-11-15 06:00:00
1:00 PM,87.8,66.2,49,29.83,6.2,NE,5.8,-,N/A,,Mostly Cloudy,50,2012-11-15 06:00:00
2:00 PM,89.6,68.0,49,29.80,6.2,ENE,5.8,-,N/A,,Mostly Cloudy,60,2012-11-15 07:00:00
3:00 PM,89.6,68.0,49,29.77,6.2,East,5.8,-,N/A,,Mostly Cloudy,80,2012-11-15 08:00:00
4:00 PM,91.4,69.8,49,29.77,6.2,North,4.6,-,N/A,,Mostly Cloudy,10,2012-11-15 09:00:00
5:00 PM,87.8,69.8,55,29.77,6.2,NE,4.6,-,N/A,,Mostly Cloudy,50,2012-11-15 10:00:00
5:30 PM,87.8,69.8,55,29.80,5.6,NE,4.6,-,N/A,,Mostly Cloudy,50,2012-11-15 10:30:00
6:00 PM,86.0,69.8,58,29.80,5.6,NE,3.5,-,N/A,,Mostly Cloudy,40,2012-11-15 11:00:00
7:00 PM,84,70,55,29.83,6,NNE,4.6,,,,Haze,30,2012-11-15 12:00:00
7:00 PM,84.2,69.8,62,29.83,5.6,NNE,4.6,-,N/A,,Mostly Cloudy,20,2012-11-15 12:00:00
8:00 PM,82.4,69.8,66,29.83,6.2,NNE,5.8,-,N/A,,Mostly Cloudy,30,2012-11-15 13:00:00
9:00 PM,80.6,69.8,70,29.86,-9999.0,NNE,5.8,-,N/A,,Clear,30,2012-11-15 14:00:00
10:00 PM,80.6,69.8,70,29.86,5.6,North,2.3,-,N/A,,Overcast,10,2012-11-15 15:00:00